sensor_id;sensor_type;location;lat;lon;timestamp;temperature;humidity
79049;DHT22;68680;50.764;6.120;2023-07-30T00:01:08;16.10;99.90
79049;DHT22;68680;50.764;6.120;2023-07-30T00:03:34;16.10;99.90
79049;DHT22;68680;50.764;6.120;2023-07-30T00:06:00;16.10;99.90
79049;DHT22;68680;50.764;6.120;2023-07-30T00:08:26;16.00;99.90
79049;DHT22;68680;50.764;6.120;2023-07-30T00:10:51;16.00;99.90
79049;DHT22;68680;50.764;6.120;2023-07-30T00:13:17;16.00;99.90
79049;DHT22;68680;50.764;6.120;2023-07-30T00:15:45;16.00;99.90
79049;DHT22;68680;50.764;6.120;2023-07-30T00:18:13;16.00;99.90
79049;DHT22;68680;50.764;6.120;2023-07-30T00:20:39;16.00;99.90
79049;DHT22;68680;50.764;6.120;2023-07-30T00:23:05;16.00;99.90
79049;DHT22;68680;50.764;6.120;2023-07-30T00:25:31;16.00;99.90
79049;DHT22;68680;50.764;6.120;2023-07-30T00:27:57;16.00;99.90
79049;DHT22;68680;50.764;6.120;2023-07-30T00:30:22;16.00;99.90
79049;DHT22;68680;50.764;6.120;2023-07-30T00:32:48;15.90;99.90
79049;DHT22;68680;50.764;6.120;2023-07-30T00:35:15;15.90;99.90
79049;DHT22;68680;50.764;6.120;2023-07-30T00:37:41;15.90;99.90
79049;DHT22;68680;50.764;6.120;2023-07-30T00:40:08;16.00;99.90
79049;DHT22;68680;50.764;6.120;2023-07-30T00:42:34;15.90;99.90
79049;DHT22;68680;50.764;6.120;2023-07-30T00:45:00;15.90;99.90
79049;DHT22;68680;50.764;6.120;2023-07-30T00:47:26;15.90;99.90
79049;DHT22;68680;50.764;6.120;2023-07-30T00:49:52;15.90;99.90
79049;DHT22;68680;50.764;6.120;2023-07-30T00:52:21;15.90;99.90
79049;DHT22;68680;50.764;6.120;2023-07-30T00:54:48;15.90;99.90
79049;DHT22;68680;50.764;6.120;2023-07-30T00:57:15;15.90;99.90
79049;DHT22;68680;50.764;6.120;2023-07-30T00:59:42;15.90;99.90
79049;DHT22;68680;50.764;6.120;2023-07-30T01:02:09;15.90;99.90
79049;DHT22;68680;50.764;6.120;2023-07-30T01:04:36;15.90;99.90
79049;DHT22;68680;50.764;6.120;2023-07-30T01:07:02;15.90;99.90
79049;DHT22;68680;50.764;6.120;2023-07-30T01:09:29;15.90;99.90
79049;DHT22;68680;50.764;6.120;2023-07-30T01:11:55;16.00;99.90
79049;DHT22;68680;50.764;6.120;2023-07-30T01:14:22;16.00;99.90
79049;DHT22;68680;50.764;6.120;2023-07-30T01:16:48;16.00;99.90
79049;DHT22;68680;50.764;6.120;2023-07-30T01:19:14;16.00;99.90
79049;DHT22;68680;50.764;6.120;2023-07-30T01:21:42;15.90;99.90
79049;DHT22;68680;50.764;6.120;2023-07-30T01:24:08;15.90;99.90
79049;DHT22;68680;50.764;6.120;2023-07-30T01:26:37;15.90;99.90
79049;DHT22;68680;50.764;6.120;2023-07-30T01:29:09;15.90;99.90
79049;DHT22;68680;50.764;6.120;2023-07-30T01:31:40;15.90;99.90
79049;DHT22;68680;50.764;6.120;2023-07-30T01:34:07;15.90;99.90
79049;DHT22;68680;50.764;6.120;2023-07-30T01:36:37;15.90;99.90
79049;DHT22;68680;50.764;6.120;2023-07-30T01:39:06;15.90;99.90
79049;DHT22;68680;50.764;6.120;2023-07-30T01:41:34;15.90;99.90
79049;DHT22;68680;50.764;6.120;2023-07-30T01:44:00;15.90;99.90
79049;DHT22;68680;50.764;6.120;2023-07-30T01:46:26;15.80;99.90
79049;DHT22;68680;50.764;6.120;2023-07-30T01:48:52;15.80;99.90
79049;DHT22;68680;50.764;6.120;2023-07-30T01:51:18;15.90;99.90
79049;DHT22;68680;50.764;6.120;2023-07-30T01:53:43;15.90;99.90
79049;DHT22;68680;50.764;6.120;2023-07-30T01:56:10;15.80;99.90
79049;DHT22;68680;50.764;6.120;2023-07-30T01:58:36;15.90;99.90
79049;DHT22;68680;50.764;6.120;2023-07-30T02:01:02;15.90;99.90
79049;DHT22;68680;50.764;6.120;2023-07-30T02:03:28;16.00;99.90
79049;DHT22;68680;50.764;6.120;2023-07-30T02:05:53;15.90;99.90
79049;DHT22;68680;50.764;6.120;2023-07-30T02:08:19;15.90;99.90
79049;DHT22;68680;50.764;6.120;2023-07-30T02:10:54;16.00;99.90
79049;DHT22;68680;50.764;6.120;2023-07-30T02:13:22;15.90;99.90
79049;DHT22;68680;50.764;6.120;2023-07-30T02:15:48;16.00;99.90
79049;DHT22;68680;50.764;6.120;2023-07-30T02:18:14;16.00;99.90
79049;DHT22;68680;50.764;6.120;2023-07-30T02:20:40;16.00;99.90
79049;DHT22;68680;50.764;6.120;2023-07-30T02:23:05;16.00;99.90
79049;DHT22;68680;50.764;6.120;2023-07-30T02:25:31;15.90;99.90
79049;DHT22;68680;50.764;6.120;2023-07-30T02:27:59;16.00;99.90
79049;DHT22;68680;50.764;6.120;2023-07-30T02:30:27;16.00;99.90
79049;DHT22;68680;50.764;6.120;2023-07-30T02:32:54;16.00;99.90
79049;DHT22;68680;50.764;6.120;2023-07-30T02:35:20;15.90;99.90
79049;DHT22;68680;50.764;6.120;2023-07-30T02:37:45;16.00;99.90
79049;DHT22;68680;50.764;6.120;2023-07-30T02:40:11;15.90;99.90
79049;DHT22;68680;50.764;6.120;2023-07-30T02:42:37;15.90;99.90
79049;DHT22;68680;50.764;6.120;2023-07-30T02:45:03;15.90;99.90
79049;DHT22;68680;50.764;6.120;2023-07-30T02:47:31;16.00;99.90
79049;DHT22;68680;50.764;6.120;2023-07-30T02:49:57;15.90;99.90
79049;DHT22;68680;50.764;6.120;2023-07-30T02:52:22;15.90;99.90
79049;DHT22;68680;50.764;6.120;2023-07-30T02:54:48;15.90;99.90
79049;DHT22;68680;50.764;6.120;2023-07-30T02:57:14;15.90;99.90
79049;DHT22;68680;50.764;6.120;2023-07-30T02:59:40;15.90;99.90
79049;DHT22;68680;50.764;6.120;2023-07-30T03:02:06;15.80;99.90
79049;DHT22;68680;50.764;6.120;2023-07-30T03:04:33;15.80;99.90
79049;DHT22;68680;50.764;6.120;2023-07-30T03:06:59;15.80;99.90
79049;DHT22;68680;50.764;6.120;2023-07-30T03:09:25;15.80;99.90
79049;DHT22;68680;50.764;6.120;2023-07-30T03:11:51;15.70;99.90
79049;DHT22;68680;50.764;6.120;2023-07-30T03:14:17;15.70;99.90
79049;DHT22;68680;50.764;6.120;2023-07-30T03:16:42;15.70;99.90
79049;DHT22;68680;50.764;6.120;2023-07-30T03:19:08;15.70;99.90
79049;DHT22;68680;50.764;6.120;2023-07-30T03:21:35;15.70;99.90
79049;DHT22;68680;50.764;6.120;2023-07-30T03:24:01;15.60;99.90
79049;DHT22;68680;50.764;6.120;2023-07-30T03:26:27;15.60;99.90
79049;DHT22;68680;50.764;6.120;2023-07-30T03:28:53;15.60;99.90
79049;DHT22;68680;50.764;6.120;2023-07-30T03:31:18;15.60;99.90
79049;DHT22;68680;50.764;6.120;2023-07-30T03:33:44;15.60;99.90
79049;DHT22;68680;50.764;6.120;2023-07-30T03:36:10;15.60;99.90
79049;DHT22;68680;50.764;6.120;2023-07-30T03:38:37;15.60;99.90
79049;DHT22;68680;50.764;6.120;2023-07-30T03:41:04;15.50;99.90
79049;DHT22;68680;50.764;6.120;2023-07-30T03:43:30;15.50;99.90
79049;DHT22;68680;50.764;6.120;2023-07-30T03:45:56;15.60;99.90
79049;DHT22;68680;50.764;6.120;2023-07-30T03:48:22;15.60;99.90
79049;DHT22;68680;50.764;6.120;2023-07-30T03:50:47;15.60;99.90
79049;DHT22;68680;50.764;6.120;2023-07-30T03:53:13;15.50;99.90
79049;DHT22;68680;50.764;6.120;2023-07-30T03:55:40;15.50;99.90
79049;DHT22;68680;50.764;6.120;2023-07-30T03:58:06;15.50;99.90
79049;DHT22;68680;50.764;6.120;2023-07-30T04:00:32;15.50;99.90
79049;DHT22;68680;50.764;6.120;2023-07-30T04:02:58;15.50;99.90
79049;DHT22;68680;50.764;6.120;2023-07-30T04:05:24;15.40;99.90
79049;DHT22;68680;50.764;6.120;2023-07-30T04:07:50;15.40;99.90
79049;DHT22;68680;50.764;6.120;2023-07-30T04:10:16;15.40;99.90
79049;DHT22;68680;50.764;6.120;2023-07-30T04:12:43;15.40;99.90
79049;DHT22;68680;50.764;6.120;2023-07-30T04:15:09;15.30;99.90
79049;DHT22;68680;50.764;6.120;2023-07-30T04:17:36;15.20;99.90
79049;DHT22;68680;50.764;6.120;2023-07-30T04:20:03;15.20;99.90
79049;DHT22;68680;50.764;6.120;2023-07-30T04:22:30;15.20;99.90
79049;DHT22;68680;50.764;6.120;2023-07-30T04:24:56;15.20;99.90
79049;DHT22;68680;50.764;6.120;2023-07-30T04:27:22;15.20;99.90
79049;DHT22;68680;50.764;6.120;2023-07-30T04:29:49;15.20;99.90
79049;DHT22;68680;50.764;6.120;2023-07-30T04:32:14;15.20;99.90
79049;DHT22;68680;50.764;6.120;2023-07-30T04:34:40;15.20;99.90
79049;DHT22;68680;50.764;6.120;2023-07-30T04:37:06;15.20;99.90
79049;DHT22;68680;50.764;6.120;2023-07-30T04:39:32;15.20;99.90
79049;DHT22;68680;50.764;6.120;2023-07-30T04:41:58;15.10;99.90
79049;DHT22;68680;50.764;6.120;2023-07-30T04:44:24;15.00;99.90
79049;DHT22;68680;50.764;6.120;2023-07-30T04:46:51;15.00;99.90
79049;DHT22;68680;50.764;6.120;2023-07-30T04:49:17;15.00;99.90
79049;DHT22;68680;50.764;6.120;2023-07-30T04:51:43;14.90;99.90
79049;DHT22;68680;50.764;6.120;2023-07-30T04:54:09;14.90;99.90
79049;DHT22;68680;50.764;6.120;2023-07-30T04:56:34;14.90;99.90
79049;DHT22;68680;50.764;6.120;2023-07-30T04:59:00;14.80;99.90
79049;DHT22;68680;50.764;6.120;2023-07-30T05:01:27;14.90;99.90
79049;DHT22;68680;50.764;6.120;2023-07-30T05:03:54;14.90;99.90
79049;DHT22;68680;50.764;6.120;2023-07-30T05:06:20;14.90;99.90
79049;DHT22;68680;50.764;6.120;2023-07-30T05:08:48;14.80;99.90
79049;DHT22;68680;50.764;6.120;2023-07-30T05:11:14;14.80;99.90
79049;DHT22;68680;50.764;6.120;2023-07-30T05:13:39;14.80;99.90
79049;DHT22;68680;50.764;6.120;2023-07-30T05:16:05;14.80;99.90
79049;DHT22;68680;50.764;6.120;2023-07-30T05:18:31;14.90;99.90
79049;DHT22;68680;50.764;6.120;2023-07-30T05:20:59;14.80;99.90
79049;DHT22;68680;50.764;6.120;2023-07-30T05:23:24;14.80;99.90
79049;DHT22;68680;50.764;6.120;2023-07-30T05:25:50;14.80;99.90
79049;DHT22;68680;50.764;6.120;2023-07-30T05:28:16;14.80;99.90
79049;DHT22;68680;50.764;6.120;2023-07-30T05:30:42;14.80;99.90
79049;DHT22;68680;50.764;6.120;2023-07-30T05:33:08;14.80;99.90
79049;DHT22;68680;50.764;6.120;2023-07-30T05:35:33;14.80;99.90
79049;DHT22;68680;50.764;6.120;2023-07-30T05:38:00;14.80;99.90
79049;DHT22;68680;50.764;6.120;2023-07-30T05:40:26;14.80;99.90
79049;DHT22;68680;50.764;6.120;2023-07-30T05:42:52;14.80;99.90
79049;DHT22;68680;50.764;6.120;2023-07-30T05:45:18;14.80;99.90
79049;DHT22;68680;50.764;6.120;2023-07-30T05:47:44;14.80;99.90
79049;DHT22;68680;50.764;6.120;2023-07-30T05:50:10;14.80;99.90
79049;DHT22;68680;50.764;6.120;2023-07-30T05:52:35;14.80;99.90
79049;DHT22;68680;50.764;6.120;2023-07-30T05:55:03;14.80;99.90
79049;DHT22;68680;50.764;6.120;2023-07-30T05:57:30;14.80;99.90
79049;DHT22;68680;50.764;6.120;2023-07-30T05:59:56;14.80;99.90
79049;DHT22;68680;50.764;6.120;2023-07-30T06:02:21;14.80;99.90
79049;DHT22;68680;50.764;6.120;2023-07-30T06:04:47;14.90;99.90
79049;DHT22;68680;50.764;6.120;2023-07-30T06:07:13;14.90;99.90
79049;DHT22;68680;50.764;6.120;2023-07-30T06:09:39;14.90;99.90
79049;DHT22;68680;50.764;6.120;2023-07-30T06:12:06;15.00;99.90
79049;DHT22;68680;50.764;6.120;2023-07-30T06:14:33;15.00;99.90
79049;DHT22;68680;50.764;6.120;2023-07-30T06:16:58;15.10;99.90
79049;DHT22;68680;50.764;6.120;2023-07-30T06:19:24;15.10;99.90
79049;DHT22;68680;50.764;6.120;2023-07-30T06:21:50;15.10;99.90
79049;DHT22;68680;50.764;6.120;2023-07-30T06:24:16;15.10;99.90
79049;DHT22;68680;50.764;6.120;2023-07-30T06:26:41;15.10;99.90
79049;DHT22;68680;50.764;6.120;2023-07-30T06:29:08;15.10;99.90
79049;DHT22;68680;50.764;6.120;2023-07-30T06:31:34;15.10;99.90
79049;DHT22;68680;50.764;6.120;2023-07-30T06:34:00;15.10;99.90
79049;DHT22;68680;50.764;6.120;2023-07-30T06:36:26;15.10;99.90
79049;DHT22;68680;50.764;6.120;2023-07-30T06:38:52;15.10;99.90
79049;DHT22;68680;50.764;6.120;2023-07-30T06:41:17;15.20;99.90
79049;DHT22;68680;50.764;6.120;2023-07-30T06:43:43;15.20;99.90
79049;DHT22;68680;50.764;6.120;2023-07-30T06:46:10;15.10;99.90
79049;DHT22;68680;50.764;6.120;2023-07-30T06:48:36;15.10;99.90
79049;DHT22;68680;50.764;6.120;2023-07-30T06:51:06;15.20;99.90
79049;DHT22;68680;50.764;6.120;2023-07-30T06:53:32;15.20;99.90
79049;DHT22;68680;50.764;6.120;2023-07-30T06:55:58;15.20;99.90
79049;DHT22;68680;50.764;6.120;2023-07-30T06:58:24;15.20;99.90
79049;DHT22;68680;50.764;6.120;2023-07-30T07:00:49;15.20;99.90
79049;DHT22;68680;50.764;6.120;2023-07-30T07:03:17;15.30;99.90
79049;DHT22;68680;50.764;6.120;2023-07-30T07:05:43;15.30;99.90
79049;DHT22;68680;50.764;6.120;2023-07-30T07:08:10;15.30;99.90
79049;DHT22;68680;50.764;6.120;2023-07-30T07:10:35;15.30;99.90
79049;DHT22;68680;50.764;6.120;2023-07-30T07:13:01;15.40;99.90
79049;DHT22;68680;50.764;6.120;2023-07-30T07:15:27;15.40;99.90
79049;DHT22;68680;50.764;6.120;2023-07-30T07:17:53;15.50;99.90
79049;DHT22;68680;50.764;6.120;2023-07-30T07:20:20;15.60;99.90
79049;DHT22;68680;50.764;6.120;2023-07-30T07:22:46;15.60;99.90
79049;DHT22;68680;50.764;6.120;2023-07-30T07:25:12;15.70;99.90
79049;DHT22;68680;50.764;6.120;2023-07-30T07:27:37;15.70;99.90
79049;DHT22;68680;50.764;6.120;2023-07-30T07:30:04;15.70;99.90
79049;DHT22;68680;50.764;6.120;2023-07-30T07:32:30;15.70;99.90
79049;DHT22;68680;50.764;6.120;2023-07-30T07:34:56;15.80;99.90
79049;DHT22;68680;50.764;6.120;2023-07-30T07:37:23;15.80;99.90
79049;DHT22;68680;50.764;6.120;2023-07-30T07:39:49;15.90;99.90
79049;DHT22;68680;50.764;6.120;2023-07-30T07:42:14;15.90;99.90
79049;DHT22;68680;50.764;6.120;2023-07-30T07:44:40;15.90;99.90
79049;DHT22;68680;50.764;6.120;2023-07-30T07:47:06;16.00;99.90
79049;DHT22;68680;50.764;6.120;2023-07-30T07:49:32;16.10;99.90
79049;DHT22;68680;50.764;6.120;2023-07-30T07:51:57;16.10;99.90
79049;DHT22;68680;50.764;6.120;2023-07-30T07:54:25;16.20;99.90
79049;DHT22;68680;50.764;6.120;2023-07-30T07:56:50;16.10;99.90
79049;DHT22;68680;50.764;6.120;2023-07-30T07:59:16;16.10;99.90
79049;DHT22;68680;50.764;6.120;2023-07-30T08:01:42;16.00;99.90
79049;DHT22;68680;50.764;6.120;2023-07-30T08:04:08;16.00;99.90
79049;DHT22;68680;50.764;6.120;2023-07-30T08:06:33;16.00;99.90
79049;DHT22;68680;50.764;6.120;2023-07-30T08:08:59;16.00;99.90
79049;DHT22;68680;50.764;6.120;2023-07-30T08:11:26;16.00;99.90
79049;DHT22;68680;50.764;6.120;2023-07-30T08:13:52;16.00;99.90
79049;DHT22;68680;50.764;6.120;2023-07-30T08:16:18;16.10;99.90
79049;DHT22;68680;50.764;6.120;2023-07-30T08:18:43;16.20;99.90
79049;DHT22;68680;50.764;6.120;2023-07-30T08:21:09;16.20;99.90
79049;DHT22;68680;50.764;6.120;2023-07-30T08:23:35;16.20;99.90
79049;DHT22;68680;50.764;6.120;2023-07-30T08:26:01;16.40;99.90
79049;DHT22;68680;50.764;6.120;2023-07-30T08:28:28;16.60;99.90
79049;DHT22;68680;50.764;6.120;2023-07-30T08:30:59;16.60;99.90
79049;DHT22;68680;50.764;6.120;2023-07-30T08:33:25;16.70;99.90
79049;DHT22;68680;50.764;6.120;2023-07-30T08:35:54;16.70;99.90
79049;DHT22;68680;50.764;6.120;2023-07-30T08:38:20;16.70;99.90
79049;DHT22;68680;50.764;6.120;2023-07-30T08:40:46;16.70;99.90
79049;DHT22;68680;50.764;6.120;2023-07-30T08:43:12;16.70;99.90
79049;DHT22;68680;50.764;6.120;2023-07-30T08:45:39;16.70;99.90
79049;DHT22;68680;50.764;6.120;2023-07-30T08:48:05;16.70;99.90
79049;DHT22;68680;50.764;6.120;2023-07-30T08:50:31;16.70;99.90
79049;DHT22;68680;50.764;6.120;2023-07-30T08:52:59;16.70;99.90
79049;DHT22;68680;50.764;6.120;2023-07-30T08:55:28;16.60;99.90
79049;DHT22;68680;50.764;6.120;2023-07-30T08:57:55;16.60;99.90
79049;DHT22;68680;50.764;6.120;2023-07-30T09:00:24;16.50;99.90
79049;DHT22;68680;50.764;6.120;2023-07-30T09:02:54;16.60;99.90
79049;DHT22;68680;50.764;6.120;2023-07-30T09:05:22;16.70;99.90
79049;DHT22;68680;50.764;6.120;2023-07-30T09:07:47;16.80;99.90
79049;DHT22;68680;50.764;6.120;2023-07-30T09:10:14;17.00;99.90
79049;DHT22;68680;50.764;6.120;2023-07-30T09:12:40;17.10;99.90
79049;DHT22;68680;50.764;6.120;2023-07-30T09:15:07;17.20;99.90
79049;DHT22;68680;50.764;6.120;2023-07-30T09:17:33;17.30;99.90
79049;DHT22;68680;50.764;6.120;2023-07-30T09:20:01;17.30;99.90
79049;DHT22;68680;50.764;6.120;2023-07-30T09:22:28;17.30;99.90
79049;DHT22;68680;50.764;6.120;2023-07-30T09:24:56;17.40;99.90
79049;DHT22;68680;50.764;6.120;2023-07-30T09:27:25;17.40;99.90
79049;DHT22;68680;50.764;6.120;2023-07-30T09:29:52;17.40;99.90
79049;DHT22;68680;50.764;6.120;2023-07-30T09:32:19;17.40;99.90
79049;DHT22;68680;50.764;6.120;2023-07-30T09:34:45;17.30;99.90
79049;DHT22;68680;50.764;6.120;2023-07-30T09:37:13;17.20;99.90
79049;DHT22;68680;50.764;6.120;2023-07-30T09:39:39;17.10;99.90
79049;DHT22;68680;50.764;6.120;2023-07-30T09:42:06;17.20;99.90
79049;DHT22;68680;50.764;6.120;2023-07-30T09:44:32;17.30;99.90
79049;DHT22;68680;50.764;6.120;2023-07-30T09:46:58;17.50;99.90
79049;DHT22;68680;50.764;6.120;2023-07-30T09:49:24;17.70;99.90
79049;DHT22;68680;50.764;6.120;2023-07-30T09:51:51;17.80;99.90
79049;DHT22;68680;50.764;6.120;2023-07-30T09:54:18;18.00;99.90
79049;DHT22;68680;50.764;6.120;2023-07-30T09:56:44;18.10;99.90
79049;DHT22;68680;50.764;6.120;2023-07-30T09:59:10;18.20;99.90
79049;DHT22;68680;50.764;6.120;2023-07-30T10:01:38;18.30;99.50
79049;DHT22;68680;50.764;6.120;2023-07-30T10:04:10;18.50;99.90
79049;DHT22;68680;50.764;6.120;2023-07-30T10:06:40;18.60;99.20
79049;DHT22;68680;50.764;6.120;2023-07-30T10:09:12;18.50;98.80
79049;DHT22;68680;50.764;6.120;2023-07-30T10:11:42;18.40;98.40
79049;DHT22;68680;50.764;6.120;2023-07-30T10:14:11;18.40;98.80
79049;DHT22;68680;50.764;6.120;2023-07-30T10:16:38;18.40;99.00
79049;DHT22;68680;50.764;6.120;2023-07-30T10:19:04;18.60;97.30
79049;DHT22;68680;50.764;6.120;2023-07-30T10:21:32;18.60;96.40
79049;DHT22;68680;50.764;6.120;2023-07-30T10:24:00;18.70;95.30
79049;DHT22;68680;50.764;6.120;2023-07-30T10:26:28;18.80;95.50
79049;DHT22;68680;50.764;6.120;2023-07-30T10:29:13;18.70;95.40
79049;DHT22;68680;50.764;6.120;2023-07-30T10:31:40;18.70;95.60
79049;DHT22;68680;50.764;6.120;2023-07-30T10:34:08;18.60;94.70
79049;DHT22;68680;50.764;6.120;2023-07-30T10:36:42;18.60;97.40
79049;DHT22;68680;50.764;6.120;2023-07-30T10:39:14;18.60;98.20
79049;DHT22;68680;50.764;6.120;2023-07-30T10:41:43;18.70;97.90
79049;DHT22;68680;50.764;6.120;2023-07-30T10:44:18;18.60;98.30
79049;DHT22;68680;50.764;6.120;2023-07-30T10:46:47;18.60;95.80
79049;DHT22;68680;50.764;6.120;2023-07-30T10:49:13;18.70;96.80
79049;DHT22;68680;50.764;6.120;2023-07-30T10:51:39;18.70;99.60
79049;DHT22;68680;50.764;6.120;2023-07-30T10:54:06;18.80;96.90
79049;DHT22;68680;50.764;6.120;2023-07-30T10:56:32;18.70;96.60
79049;DHT22;68680;50.764;6.120;2023-07-30T10:59:00;18.60;96.40
79049;DHT22;68680;50.764;6.120;2023-07-30T11:01:30;18.40;94.40
79049;DHT22;68680;50.764;6.120;2023-07-30T11:03:56;18.20;98.00
79049;DHT22;68680;50.764;6.120;2023-07-30T11:06:22;18.10;97.80
79049;DHT22;68680;50.764;6.120;2023-07-30T11:08:49;18.20;96.30
79049;DHT22;68680;50.764;6.120;2023-07-30T11:11:15;18.40;96.00
79049;DHT22;68680;50.764;6.120;2023-07-30T11:13:44;18.40;95.50
79049;DHT22;68680;50.764;6.120;2023-07-30T11:16:11;18.50;97.10
79049;DHT22;68680;50.764;6.120;2023-07-30T11:18:38;18.60;95.60
79049;DHT22;68680;50.764;6.120;2023-07-30T11:21:05;18.70;95.60
79049;DHT22;68680;50.764;6.120;2023-07-30T11:23:32;18.70;95.50
79049;DHT22;68680;50.764;6.120;2023-07-30T11:26:01;18.80;97.80
79049;DHT22;68680;50.764;6.120;2023-07-30T11:28:28;18.70;95.80
79049;DHT22;68680;50.764;6.120;2023-07-30T11:30:57;18.60;95.50
79049;DHT22;68680;50.764;6.120;2023-07-30T11:33:24;18.60;95.00
79049;DHT22;68680;50.764;6.120;2023-07-30T11:35:52;18.60;93.60
79049;DHT22;68680;50.764;6.120;2023-07-30T11:38:19;18.50;95.40
79049;DHT22;68680;50.764;6.120;2023-07-30T11:40:45;18.50;96.90
79049;DHT22;68680;50.764;6.120;2023-07-30T11:43:11;18.50;95.80
79049;DHT22;68680;50.764;6.120;2023-07-30T11:45:37;18.50;96.40
79049;DHT22;68680;50.764;6.120;2023-07-30T11:48:07;18.70;93.60
79049;DHT22;68680;50.764;6.120;2023-07-30T11:50:43;18.90;97.50
79049;DHT22;68680;50.764;6.120;2023-07-30T11:53:11;18.90;92.80
79049;DHT22;68680;50.764;6.120;2023-07-30T11:55:37;18.90;94.60
79049;DHT22;68680;50.764;6.120;2023-07-30T11:58:04;18.80;93.40
79049;DHT22;68680;50.764;6.120;2023-07-30T12:00:31;18.70;92.00
79049;DHT22;68680;50.764;6.120;2023-07-30T12:03:01;18.60;94.00
79049;DHT22;68680;50.764;6.120;2023-07-30T12:05:31;18.60;96.00
79049;DHT22;68680;50.764;6.120;2023-07-30T12:07:57;18.70;94.90
79049;DHT22;68680;50.764;6.120;2023-07-30T12:10:25;18.90;94.00
79049;DHT22;68680;50.764;6.120;2023-07-30T12:12:51;19.10;92.30
79049;DHT22;68680;50.764;6.120;2023-07-30T12:15:17;19.30;91.30
79049;DHT22;68680;50.764;6.120;2023-07-30T12:17:43;19.30;91.60
79049;DHT22;68680;50.764;6.120;2023-07-30T12:20:10;19.20;91.10
79049;DHT22;68680;50.764;6.120;2023-07-30T12:22:37;19.10;93.20
79049;DHT22;68680;50.764;6.120;2023-07-30T12:25:03;18.80;88.80
79049;DHT22;68680;50.764;6.120;2023-07-30T12:27:31;18.70;92.30
79049;DHT22;68680;50.764;6.120;2023-07-30T12:29:57;18.50;92.30
79049;DHT22;68680;50.764;6.120;2023-07-30T12:32:22;18.40;91.90
79049;DHT22;68680;50.764;6.120;2023-07-30T12:34:48;18.40;93.00
79049;DHT22;68680;50.764;6.120;2023-07-30T12:37:14;18.30;93.00
79049;DHT22;68680;50.764;6.120;2023-07-30T12:39:40;18.30;94.30
79049;DHT22;68680;50.764;6.120;2023-07-30T12:42:06;18.30;95.00
79049;DHT22;68680;50.764;6.120;2023-07-30T12:44:33;18.40;93.50
79049;DHT22;68680;50.764;6.120;2023-07-30T12:46:58;18.60;93.70
79049;DHT22;68680;50.764;6.120;2023-07-30T12:49:24;18.70;93.60
79049;DHT22;68680;50.764;6.120;2023-07-30T12:51:50;19.10;91.10
79049;DHT22;68680;50.764;6.120;2023-07-30T12:54:16;19.40;87.00
79049;DHT22;68680;50.764;6.120;2023-07-30T12:56:41;19.40;88.00
79049;DHT22;68680;50.764;6.120;2023-07-30T12:59:07;19.40;84.30
79049;DHT22;68680;50.764;6.120;2023-07-30T13:01:34;19.60;86.70
79049;DHT22;68680;50.764;6.120;2023-07-30T13:04:00;20.10;79.20
79049;DHT22;68680;50.764;6.120;2023-07-30T13:06:26;20.10;79.50
79049;DHT22;68680;50.764;6.120;2023-07-30T13:08:52;20.40;74.00
79049;DHT22;68680;50.764;6.120;2023-07-30T13:11:17;21.30;76.20
79049;DHT22;68680;50.764;6.120;2023-07-30T13:13:43;22.40;70.50
79049;DHT22;68680;50.764;6.120;2023-07-30T13:16:09;23.20;63.40
79049;DHT22;68680;50.764;6.120;2023-07-30T13:18:36;23.50;61.70
79049;DHT22;68680;50.764;6.120;2023-07-30T13:21:02;22.50;61.50
79049;DHT22;68680;50.764;6.120;2023-07-30T13:23:28;21.50;64.20
79049;DHT22;68680;50.764;6.120;2023-07-30T13:25:53;21.60;68.40
79049;DHT22;68680;50.764;6.120;2023-07-30T13:28:19;22.70;64.70
79049;DHT22;68680;50.764;6.120;2023-07-30T13:30:45;24.10;61.10
79049;DHT22;68680;50.764;6.120;2023-07-30T13:33:11;24.70;56.70
79049;DHT22;68680;50.764;6.120;2023-07-30T13:35:38;24.60;56.10
79049;DHT22;68680;50.764;6.120;2023-07-30T13:38:03;23.50;59.30
79049;DHT22;68680;50.764;6.120;2023-07-30T13:40:29;22.80;62.50
79049;DHT22;68680;50.764;6.120;2023-07-30T13:42:55;22.70;65.30
79049;DHT22;68680;50.764;6.120;2023-07-30T13:45:21;23.40;60.60
79049;DHT22;68680;50.764;6.120;2023-07-30T13:47:46;23.30;59.00
79049;DHT22;68680;50.764;6.120;2023-07-30T13:50:13;22.60;60.50
79049;DHT22;68680;50.764;6.120;2023-07-30T13:52:40;22.30;64.60
79049;DHT22;68680;50.764;6.120;2023-07-30T13:55:07;22.10;61.50
79049;DHT22;68680;50.764;6.120;2023-07-30T13:57:33;21.70;60.80
79049;DHT22;68680;50.764;6.120;2023-07-30T13:59:59;21.40;64.80
79049;DHT22;68680;50.764;6.120;2023-07-30T14:02:24;21.00;65.40
79049;DHT22;68680;50.764;6.120;2023-07-30T14:04:50;20.90;68.20
79049;DHT22;68680;50.764;6.120;2023-07-30T14:07:16;21.00;70.40
79049;DHT22;68680;50.764;6.120;2023-07-30T14:09:44;21.00;66.60
79049;DHT22;68680;50.764;6.120;2023-07-30T14:12:10;21.20;68.50
79049;DHT22;68680;50.764;6.120;2023-07-30T14:14:35;21.30;71.00
79049;DHT22;68680;50.764;6.120;2023-07-30T14:17:01;21.00;69.50
79049;DHT22;68680;50.764;6.120;2023-07-30T14:19:27;21.30;67.70
79049;DHT22;68680;50.764;6.120;2023-07-30T14:21:53;21.70;67.20
79049;DHT22;68680;50.764;6.120;2023-07-30T14:24:18;21.70;66.30
79049;DHT22;68680;50.764;6.120;2023-07-30T14:26:45;21.70;67.90
79049;DHT22;68680;50.764;6.120;2023-07-30T14:29:11;21.70;65.60
79049;DHT22;68680;50.764;6.120;2023-07-30T14:31:37;21.70;67.50
79049;DHT22;68680;50.764;6.120;2023-07-30T14:34:03;21.70;67.10
79049;DHT22;68680;50.764;6.120;2023-07-30T14:36:29;21.80;69.20
79049;DHT22;68680;50.764;6.120;2023-07-30T14:38:54;22.40;67.80
79049;DHT22;68680;50.764;6.120;2023-07-30T14:41:20;22.50;64.30
79049;DHT22;68680;50.764;6.120;2023-07-30T14:43:47;22.50;64.50
79049;DHT22;68680;50.764;6.120;2023-07-30T14:46:13;22.30;65.70
79049;DHT22;68680;50.764;6.120;2023-07-30T14:48:39;21.80;65.80
79049;DHT22;68680;50.764;6.120;2023-07-30T14:51:05;21.30;68.60
79049;DHT22;68680;50.764;6.120;2023-07-30T14:53:30;21.00;70.70
79049;DHT22;68680;50.764;6.120;2023-07-30T14:55:56;20.90;73.50
79049;DHT22;68680;50.764;6.120;2023-07-30T14:58:22;20.80;74.00
79049;DHT22;68680;50.764;6.120;2023-07-30T15:00:49;20.60;74.10
79049;DHT22;68680;50.764;6.120;2023-07-30T15:03:15;20.50;77.20
79049;DHT22;68680;50.764;6.120;2023-07-30T15:05:41;20.40;78.70
79049;DHT22;68680;50.764;6.120;2023-07-30T15:08:06;20.40;75.00
79049;DHT22;68680;50.764;6.120;2023-07-30T15:10:32;20.40;73.30
79049;DHT22;68680;50.764;6.120;2023-07-30T15:12:58;20.50;71.60
79049;DHT22;68680;50.764;6.120;2023-07-30T15:15:24;20.60;69.80
79049;DHT22;68680;50.764;6.120;2023-07-30T15:17:51;20.70;71.00
79049;DHT22;68680;50.764;6.120;2023-07-30T15:20:17;20.80;69.70
79049;DHT22;68680;50.764;6.120;2023-07-30T15:22:43;20.90;68.40
79049;DHT22;68680;50.764;6.120;2023-07-30T15:25:09;20.80;67.70